This is the latest recevied weather packets stored in our database for station/object KB0OLA. If no packets are shown the sender has not sent any weather packets the latest 10 day(s).
| Time | Temp. | Humidity | Pressure | Rain* | Wind** | Luminosity | Snow |
|---|---|---|---|---|---|---|---|
| 1777435517 | 5° C | 56% | 1020.6 hPa | 0 mm | - | - | - |
| 1777432517 | 6.67° C | 52% | 1020.1 hPa | 0 mm | - | - | - |
| 1777428318 | 10.56° C | 39% | 1019.7 hPa | 0 mm | - | - | - |
| 1777425918 | 11.11° C | 35% | 1019.7 hPa | 0 mm | - | - | - |
| 1777425338 | 11.67° C | 35% | 1019.8 hPa | 0 mm | - | - | - |
| 1777423518 | 12.78° C | 35% | 1020 hPa | 0 mm | - | - | - |
| 1777422918 | 13.33° C | 35% | 1020 hPa | 0 mm | - | - | - |
| 1777421718 | 13.89° C | 36% | 1020 hPa | 0 mm | - | - | - |
| 1777419318 | 13.89° C | 33% | 1019.9 hPa | 0 mm | - | - | - |
| 1777416918 | 13.89° C | 30% | 1020.1 hPa | 0 mm | - | - | - |
| 1777414517 | 13.89° C | 33% | 1020.3 hPa | 0 mm | - | - | - |
| 1777406718 | 12.22° C | 41% | 1020.7 hPa | 0 mm | - | - | - |
| 1777395317 | 8.89° C | 58% | 1021 hPa | 0 mm | - | - | - |
| 1777394716 | 8.33° C | 59% | 1021 hPa | 0 mm | - | - | - |
| 1777392916 | 7.22° C | 63% | 1021.1 hPa | 0 mm | - | - | - |
| 1777391118 | 6.67° C | 70% | 1021.2 hPa | 0 mm | - | - | - |
| 1777386318 | 2.78° C | 84% | 1020.2 hPa | 0 mm | - | - | - |
| 1777383918 | 1.11° C | 85% | 1019.6 hPa | 0 mm | - | - | - |
| 1777377918 | -0.56° C | 84% | 1018.1 hPa | 0 mm | - | - | - |
| 1777373737 | 0° C | 81% | 1017.4 hPa | 0 mm | - | - | - |
| 1777373118 | 0.56° C | 81% | 1017.4 hPa | 0 mm | - | - | - |
| 1777372518 | 0.56° C | 81% | 1017.3 hPa | 0 mm | - | - | - |
| 1777369518 | 1.11° C | 84% | 1017.1 hPa | 0 mm | - | - | - |
| 1777366537 | 0.56° C | 86% | 1017.4 hPa | 0 mm | - | - | - |
| 1777365917 | 0.56° C | 86% | 1017.4 hPa | 0 mm | - | - | - |
* Rain latest hour (hover to see other rain measurements)
** Current wind speed in m/s (hover to see current wind gust speed)